sensor_id;sensor_type;location;lat;lon;timestamp;temperature;humidity
60868;DHT22;46702;48.370;10.794;2024-01-27T00:02:02;2.50;99.90
60868;DHT22;46702;48.370;10.794;2024-01-27T00:04:28;2.40;99.90
60868;DHT22;46702;48.370;10.794;2024-01-27T00:06:53;2.50;99.90
60868;DHT22;46702;48.370;10.794;2024-01-27T00:09:19;2.40;99.90
60868;DHT22;46702;48.370;10.794;2024-01-27T00:11:44;2.40;99.90
60868;DHT22;46702;48.370;10.794;2024-01-27T00:14:10;2.30;99.90
60868;DHT22;46702;48.370;10.794;2024-01-27T00:16:36;1.90;99.90
60868;DHT22;46702;48.370;10.794;2024-01-27T00:19:02;1.80;99.90
60868;DHT22;46702;48.370;10.794;2024-01-27T00:21:28;1.70;99.90
60868;DHT22;46702;48.370;10.794;2024-01-27T00:23:53;1.70;99.90
60868;DHT22;46702;48.370;10.794;2024-01-27T00:26:20;1.80;99.90
60868;DHT22;46702;48.370;10.794;2024-01-27T00:28:46;1.80;99.90
60868;DHT22;46702;48.370;10.794;2024-01-27T00:31:11;1.80;99.90
60868;DHT22;46702;48.370;10.794;2024-01-27T00:33:37;1.90;99.90
60868;DHT22;46702;48.370;10.794;2024-01-27T00:36:03;1.80;99.90
60868;DHT22;46702;48.370;10.794;2024-01-27T00:38:28;1.80;99.90
60868;DHT22;46702;48.370;10.794;2024-01-27T00:40:54;1.90;99.90
60868;DHT22;46702;48.370;10.794;2024-01-27T00:43:20;1.80;99.90
60868;DHT22;46702;48.370;10.794;2024-01-27T00:45:45;1.90;99.90
60868;DHT22;46702;48.370;10.794;2024-01-27T00:48:11;1.90;99.90
60868;DHT22;46702;48.370;10.794;2024-01-27T00:50:37;1.90;99.90
60868;DHT22;46702;48.370;10.794;2024-01-27T00:53:03;2.00;99.90
60868;DHT22;46702;48.370;10.794;2024-01-27T00:55:28;2.00;99.90
60868;DHT22;46702;48.370;10.794;2024-01-27T00:57:54;2.00;99.90
60868;DHT22;46702;48.370;10.794;2024-01-27T01:00:20;2.00;99.90
60868;DHT22;46702;48.370;10.794;2024-01-27T01:02:45;1.90;99.90
60868;DHT22;46702;48.370;10.794;2024-01-27T01:05:11;1.90;99.90
60868;DHT22;46702;48.370;10.794;2024-01-27T01:07:37;1.90;99.90
60868;DHT22;46702;48.370;10.794;2024-01-27T01:10:03;1.70;99.90
60868;DHT22;46702;48.370;10.794;2024-01-27T01:12:32;1.50;99.90
60868;DHT22;46702;48.370;10.794;2024-01-27T01:15:01;1.40;99.90
60868;DHT22;46702;48.370;10.794;2024-01-27T01:17:26;1.30;99.90
60868;DHT22;46702;48.370;10.794;2024-01-27T01:19:52;1.20;99.90
60868;DHT22;46702;48.370;10.794;2024-01-27T01:22:18;1.30;99.90
60868;DHT22;46702;48.370;10.794;2024-01-27T01:24:44;1.30;99.90
60868;DHT22;46702;48.370;10.794;2024-01-27T01:27:10;1.40;99.90
60868;DHT22;46702;48.370;10.794;2024-01-27T01:29:35;1.40;99.90
60868;DHT22;46702;48.370;10.794;2024-01-27T01:32:01;1.40;99.90
60868;DHT22;46702;48.370;10.794;2024-01-27T01:34:29;1.30;99.90
60868;DHT22;46702;48.370;10.794;2024-01-27T01:36:55;1.30;99.90
60868;DHT22;46702;48.370;10.794;2024-01-27T01:39:23;1.20;99.90
60868;DHT22;46702;48.370;10.794;2024-01-27T01:41:48;1.00;99.90
60868;DHT22;46702;48.370;10.794;2024-01-27T01:44:14;1.10;99.90
60868;DHT22;46702;48.370;10.794;2024-01-27T01:46:39;1.10;99.90
60868;DHT22;46702;48.370;10.794;2024-01-27T01:49:05;1.20;99.90
60868;DHT22;46702;48.370;10.794;2024-01-27T01:51:31;0.90;99.90
60868;DHT22;46702;48.370;10.794;2024-01-27T01:53:58;0.80;99.90
60868;DHT22;46702;48.370;10.794;2024-01-27T01:56:24;0.80;99.90
60868;DHT22;46702;48.370;10.794;2024-01-27T01:58:50;0.80;99.90
60868;DHT22;46702;48.370;10.794;2024-01-27T02:01:17;0.80;99.90
60868;DHT22;46702;48.370;10.794;2024-01-27T02:06:19;0.80;99.90
60868;DHT22;46702;48.370;10.794;2024-01-27T02:08:44;0.80;99.90
60868;DHT22;46702;48.370;10.794;2024-01-27T02:11:10;0.90;99.90
60868;DHT22;46702;48.370;10.794;2024-01-27T02:13:36;0.80;99.90
60868;DHT22;46702;48.370;10.794;2024-01-27T02:16:01;0.60;99.90
60868;DHT22;46702;48.370;10.794;2024-01-27T02:18:27;0.60;99.90
60868;DHT22;46702;48.370;10.794;2024-01-27T02:20:53;0.50;99.90
60868;DHT22;46702;48.370;10.794;2024-01-27T02:23:18;0.50;99.90
60868;DHT22;46702;48.370;10.794;2024-01-27T02:25:44;0.30;99.90
60868;DHT22;46702;48.370;10.794;2024-01-27T02:28:10;0.20;99.90
60868;DHT22;46702;48.370;10.794;2024-01-27T02:30:39;0.00;99.90
60868;DHT22;46702;48.370;10.794;2024-01-27T02:33:06;-0.10;99.90
60868;DHT22;46702;48.370;10.794;2024-01-27T02:35:35;-0.20;99.90
60868;DHT22;46702;48.370;10.794;2024-01-27T02:38:01;-0.10;99.90
60868;DHT22;46702;48.370;10.794;2024-01-27T02:40:27;-0.10;99.90
60868;DHT22;46702;48.370;10.794;2024-01-27T02:42:53;-0.10;99.90
60868;DHT22;46702;48.370;10.794;2024-01-27T02:45:19;0.00;99.90
60868;DHT22;46702;48.370;10.794;2024-01-27T02:47:47;0.00;99.90
60868;DHT22;46702;48.370;10.794;2024-01-27T02:50:14;-0.10;99.90
60868;DHT22;46702;48.370;10.794;2024-01-27T02:52:40;-0.10;99.90
60868;DHT22;46702;48.370;10.794;2024-01-27T02:55:12;-0.10;99.90
60868;DHT22;46702;48.370;10.794;2024-01-27T02:57:38;0.00;99.90
60868;DHT22;46702;48.370;10.794;2024-01-27T03:00:05;0.00;99.90
60868;DHT22;46702;48.370;10.794;2024-01-27T03:02:34;0.10;99.90
60868;DHT22;46702;48.370;10.794;2024-01-27T03:05:00;0.10;99.90
60868;DHT22;46702;48.370;10.794;2024-01-27T03:07:26;0.10;99.90
60868;DHT22;46702;48.370;10.794;2024-01-27T03:09:52;0.10;99.90
60868;DHT22;46702;48.370;10.794;2024-01-27T03:12:17;0.20;99.90
60868;DHT22;46702;48.370;10.794;2024-01-27T03:14:44;0.20;99.90
60868;DHT22;46702;48.370;10.794;2024-01-27T03:17:11;0.20;99.90
60868;DHT22;46702;48.370;10.794;2024-01-27T03:19:37;0.30;99.90
60868;DHT22;46702;48.370;10.794;2024-01-27T03:22:02;0.20;99.90
60868;DHT22;46702;48.370;10.794;2024-01-27T03:24:28;0.20;99.90
60868;DHT22;46702;48.370;10.794;2024-01-27T03:26:54;0.20;99.90
60868;DHT22;46702;48.370;10.794;2024-01-27T03:29:20;0.20;99.90
60868;DHT22;46702;48.370;10.794;2024-01-27T03:31:45;0.20;99.90
60868;DHT22;46702;48.370;10.794;2024-01-27T03:34:11;0.10;99.90
60868;DHT22;46702;48.370;10.794;2024-01-27T03:36:36;0.10;99.90
60868;DHT22;46702;48.370;10.794;2024-01-27T03:39:02;0.10;99.90
60868;DHT22;46702;48.370;10.794;2024-01-27T03:41:28;-0.10;99.90
60868;DHT22;46702;48.370;10.794;2024-01-27T03:43:54;-0.20;99.90
60868;DHT22;46702;48.370;10.794;2024-01-27T03:46:20;-0.20;99.90
60868;DHT22;46702;48.370;10.794;2024-01-27T03:48:45;-0.30;99.90
60868;DHT22;46702;48.370;10.794;2024-01-27T03:51:11;-0.30;99.90
60868;DHT22;46702;48.370;10.794;2024-01-27T03:53:36;-0.30;99.90
60868;DHT22;46702;48.370;10.794;2024-01-27T03:56:02;-0.20;99.90
60868;DHT22;46702;48.370;10.794;2024-01-27T03:58:29;-0.20;99.90
60868;DHT22;46702;48.370;10.794;2024-01-27T04:00:56;-0.20;99.90
60868;DHT22;46702;48.370;10.794;2024-01-27T04:03:22;-0.10;99.90
60868;DHT22;46702;48.370;10.794;2024-01-27T04:05:48;0.00;99.90
60868;DHT22;46702;48.370;10.794;2024-01-27T04:08:13;-0.10;99.90
60868;DHT22;46702;48.370;10.794;2024-01-27T04:10:39;0.00;99.90
60868;DHT22;46702;48.370;10.794;2024-01-27T04:13:05;0.00;99.90
60868;DHT22;46702;48.370;10.794;2024-01-27T04:15:33;0.00;99.90
60868;DHT22;46702;48.370;10.794;2024-01-27T04:18:04;0.00;99.90
60868;DHT22;46702;48.370;10.794;2024-01-27T04:20:30;-0.10;99.90
60868;DHT22;46702;48.370;10.794;2024-01-27T04:22:55;-0.10;99.90
60868;DHT22;46702;48.370;10.794;2024-01-27T04:25:21;-0.10;99.90
60868;DHT22;46702;48.370;10.794;2024-01-27T04:27:46;-0.10;99.90
60868;DHT22;46702;48.370;10.794;2024-01-27T04:30:12;-0.20;99.90
60868;DHT22;46702;48.370;10.794;2024-01-27T04:32:38;-0.30;99.90
60868;DHT22;46702;48.370;10.794;2024-01-27T04:35:06;-0.40;99.90
60868;DHT22;46702;48.370;10.794;2024-01-27T04:37:33;-0.40;99.90
60868;DHT22;46702;48.370;10.794;2024-01-27T04:39:59;-0.40;99.90
60868;DHT22;46702;48.370;10.794;2024-01-27T04:42:24;-0.40;99.90
60868;DHT22;46702;48.370;10.794;2024-01-27T04:44:50;-0.40;99.90
60868;DHT22;46702;48.370;10.794;2024-01-27T04:47:16;-0.40;99.90
60868;DHT22;46702;48.370;10.794;2024-01-27T04:49:42;-0.50;99.90
60868;DHT22;46702;48.370;10.794;2024-01-27T04:52:07;-0.50;99.90
60868;DHT22;46702;48.370;10.794;2024-01-27T04:54:33;-0.60;99.90
60868;DHT22;46702;48.370;10.794;2024-01-27T04:56:59;-0.60;99.90
60868;DHT22;46702;48.370;10.794;2024-01-27T04:59:24;-0.50;99.90
60868;DHT22;46702;48.370;10.794;2024-01-27T05:01:50;-0.50;99.90
60868;DHT22;46702;48.370;10.794;2024-01-27T05:04:16;-0.40;99.90
60868;DHT22;46702;48.370;10.794;2024-01-27T05:06:45;-0.40;99.90
60868;DHT22;46702;48.370;10.794;2024-01-27T05:09:11;-0.40;99.90
60868;DHT22;46702;48.370;10.794;2024-01-27T05:11:37;-0.30;99.90
60868;DHT22;46702;48.370;10.794;2024-01-27T05:14:03;-0.40;99.90
60868;DHT22;46702;48.370;10.794;2024-01-27T05:16:29;-0.40;99.90
60868;DHT22;46702;48.370;10.794;2024-01-27T05:18:54;-0.50;99.90
60868;DHT22;46702;48.370;10.794;2024-01-27T05:21:20;-0.50;99.90
60868;DHT22;46702;48.370;10.794;2024-01-27T05:23:45;-0.70;99.90
60868;DHT22;46702;48.370;10.794;2024-01-27T05:26:11;-0.80;99.90
60868;DHT22;46702;48.370;10.794;2024-01-27T05:28:39;-0.80;99.90
60868;DHT22;46702;48.370;10.794;2024-01-27T05:31:08;-0.80;99.90
60868;DHT22;46702;48.370;10.794;2024-01-27T05:33:35;-0.70;99.90
60868;DHT22;46702;48.370;10.794;2024-01-27T05:36:00;-0.70;99.90
60868;DHT22;46702;48.370;10.794;2024-01-27T05:38:26;-0.70;99.90
60868;DHT22;46702;48.370;10.794;2024-01-27T05:40:53;-0.70;99.90
60868;DHT22;46702;48.370;10.794;2024-01-27T05:43:19;-0.70;99.90
60868;DHT22;46702;48.370;10.794;2024-01-27T05:45:45;-0.70;99.90
60868;DHT22;46702;48.370;10.794;2024-01-27T05:48:11;-0.70;99.90
60868;DHT22;46702;48.370;10.794;2024-01-27T05:50:36;-0.70;99.90
60868;DHT22;46702;48.370;10.794;2024-01-27T05:53:02;-0.60;99.90
60868;DHT22;46702;48.370;10.794;2024-01-27T05:55:28;-0.60;99.90
60868;DHT22;46702;48.370;10.794;2024-01-27T05:57:54;-0.60;99.90
60868;DHT22;46702;48.370;10.794;2024-01-27T06:00:22;-0.60;99.90
60868;DHT22;46702;48.370;10.794;2024-01-27T06:02:48;-0.60;99.90
60868;DHT22;46702;48.370;10.794;2024-01-27T06:05:14;-0.60;99.90
60868;DHT22;46702;48.370;10.794;2024-01-27T06:07:40;-0.60;99.90
60868;DHT22;46702;48.370;10.794;2024-01-27T06:10:10;-0.60;99.90
60868;DHT22;46702;48.370;10.794;2024-01-27T06:12:37;-0.60;99.90
60868;DHT22;46702;48.370;10.794;2024-01-27T06:15:04;-0.70;99.90
60868;DHT22;46702;48.370;10.794;2024-01-27T06:17:34;-0.60;99.90
60868;DHT22;46702;48.370;10.794;2024-01-27T06:20:00;-0.70;99.90
60868;DHT22;46702;48.370;10.794;2024-01-27T06:22:25;-0.60;99.90
60868;DHT22;46702;48.370;10.794;2024-01-27T06:24:51;-0.60;99.90
60868;DHT22;46702;48.370;10.794;2024-01-27T06:27:20;-0.60;99.90
60868;DHT22;46702;48.370;10.794;2024-01-27T06:29:45;-0.70;99.90
60868;DHT22;46702;48.370;10.794;2024-01-27T06:32:11;-0.70;99.90
60868;DHT22;46702;48.370;10.794;2024-01-27T06:34:36;-0.90;99.90
60868;DHT22;46702;48.370;10.794;2024-01-27T06:37:03;-0.90;99.90
60868;DHT22;46702;48.370;10.794;2024-01-27T06:39:28;-1.00;99.90
60868;DHT22;46702;48.370;10.794;2024-01-27T06:41:55;-1.00;99.90
60868;DHT22;46702;48.370;10.794;2024-01-27T06:44:20;-0.90;99.90
60868;DHT22;46702;48.370;10.794;2024-01-27T06:46:46;-0.90;99.90
60868;DHT22;46702;48.370;10.794;2024-01-27T06:49:16;-1.10;99.90
60868;DHT22;46702;48.370;10.794;2024-01-27T06:51:43;-1.10;99.90
60868;DHT22;46702;48.370;10.794;2024-01-27T06:54:11;-1.20;99.90
60868;DHT22;46702;48.370;10.794;2024-01-27T06:56:37;-1.40;99.90
60868;DHT22;46702;48.370;10.794;2024-01-27T06:59:11;-1.40;99.90
60868;DHT22;46702;48.370;10.794;2024-01-27T07:01:37;-1.40;99.90
60868;DHT22;46702;48.370;10.794;2024-01-27T07:04:03;-1.40;99.90
60868;DHT22;46702;48.370;10.794;2024-01-27T07:06:28;-1.30;99.90
60868;DHT22;46702;48.370;10.794;2024-01-27T07:08:54;-1.30;99.90
60868;DHT22;46702;48.370;10.794;2024-01-27T07:11:20;-1.30;99.90
60868;DHT22;46702;48.370;10.794;2024-01-27T07:13:46;-1.20;99.90
60868;DHT22;46702;48.370;10.794;2024-01-27T07:16:12;-1.20;99.90
60868;DHT22;46702;48.370;10.794;2024-01-27T07:18:37;-1.20;99.90
60868;DHT22;46702;48.370;10.794;2024-01-27T07:21:03;-1.20;99.90
60868;DHT22;46702;48.370;10.794;2024-01-27T07:23:29;-1.20;99.90
60868;DHT22;46702;48.370;10.794;2024-01-27T07:25:54;-1.10;99.90
60868;DHT22;46702;48.370;10.794;2024-01-27T07:28:20;-1.10;99.90
60868;DHT22;46702;48.370;10.794;2024-01-27T07:30:45;-1.10;99.90
60868;DHT22;46702;48.370;10.794;2024-01-27T07:33:11;-1.10;99.90
60868;DHT22;46702;48.370;10.794;2024-01-27T07:35:36;-1.00;99.90
60868;DHT22;46702;48.370;10.794;2024-01-27T07:38:02;-1.10;99.90
60868;DHT22;46702;48.370;10.794;2024-01-27T07:40:28;-1.10;99.90
60868;DHT22;46702;48.370;10.794;2024-01-27T07:42:54;-1.10;99.90
60868;DHT22;46702;48.370;10.794;2024-01-27T07:45:20;-1.20;99.90
60868;DHT22;46702;48.370;10.794;2024-01-27T07:47:45;-1.20;99.90
60868;DHT22;46702;48.370;10.794;2024-01-27T07:50:11;-1.20;99.90
60868;DHT22;46702;48.370;10.794;2024-01-27T07:52:37;-1.30;99.90
60868;DHT22;46702;48.370;10.794;2024-01-27T07:55:02;-1.40;99.90
60868;DHT22;46702;48.370;10.794;2024-01-27T07:57:28;-1.40;99.90
60868;DHT22;46702;48.370;10.794;2024-01-27T07:59:54;-1.30;99.90
60868;DHT22;46702;48.370;10.794;2024-01-27T08:02:19;-1.20;99.90
60868;DHT22;46702;48.370;10.794;2024-01-27T08:04:45;-1.10;99.90
60868;DHT22;46702;48.370;10.794;2024-01-27T08:07:11;-1.10;99.90
60868;DHT22;46702;48.370;10.794;2024-01-27T08:09:37;-1.00;99.90
60868;DHT22;46702;48.370;10.794;2024-01-27T08:12:04;-1.00;99.90
60868;DHT22;46702;48.370;10.794;2024-01-27T08:14:30;-0.90;99.90
60868;DHT22;46702;48.370;10.794;2024-01-27T08:16:56;-0.90;99.90
60868;DHT22;46702;48.370;10.794;2024-01-27T08:19:23;-0.80;99.90
60868;DHT22;46702;48.370;10.794;2024-01-27T08:21:49;-0.70;99.90
60868;DHT22;46702;48.370;10.794;2024-01-27T08:24:14;-0.70;99.90
60868;DHT22;46702;48.370;10.794;2024-01-27T08:26:40;-0.70;99.90
60868;DHT22;46702;48.370;10.794;2024-01-27T08:29:10;-0.60;99.90
60868;DHT22;46702;48.370;10.794;2024-01-27T08:31:36;-0.70;99.90
60868;DHT22;46702;48.370;10.794;2024-01-27T08:34:03;-0.70;99.90
60868;DHT22;46702;48.370;10.794;2024-01-27T08:36:29;-0.60;99.90
60868;DHT22;46702;48.370;10.794;2024-01-27T08:38:54;-0.40;99.90
60868;DHT22;46702;48.370;10.794;2024-01-27T08:41:20;-0.30;99.90
60868;DHT22;46702;48.370;10.794;2024-01-27T08:43:46;-0.30;99.90
60868;DHT22;46702;48.370;10.794;2024-01-27T08:46:11;-0.20;99.90
60868;DHT22;46702;48.370;10.794;2024-01-27T08:48:39;-0.20;99.90
60868;DHT22;46702;48.370;10.794;2024-01-27T08:51:08;-0.20;99.90
60868;DHT22;46702;48.370;10.794;2024-01-27T08:53:34;-0.20;99.90
60868;DHT22;46702;48.370;10.794;2024-01-27T08:56:01;-0.10;99.90
60868;DHT22;46702;48.370;10.794;2024-01-27T08:58:26;-0.10;99.90
60868;DHT22;46702;48.370;10.794;2024-01-27T09:00:52;0.00;99.90
60868;DHT22;46702;48.370;10.794;2024-01-27T09:03:18;0.00;99.90
60868;DHT22;46702;48.370;10.794;2024-01-27T09:05:46;0.20;99.90
60868;DHT22;46702;48.370;10.794;2024-01-27T09:08:12;0.20;99.90
60868;DHT22;46702;48.370;10.794;2024-01-27T09:10:38;0.30;99.90
60868;DHT22;46702;48.370;10.794;2024-01-27T09:13:04;0.40;99.90
60868;DHT22;46702;48.370;10.794;2024-01-27T09:15:30;0.50;99.90
60868;DHT22;46702;48.370;10.794;2024-01-27T09:17:56;0.60;99.90
60868;DHT22;46702;48.370;10.794;2024-01-27T09:20:22;0.70;99.90
60868;DHT22;46702;48.370;10.794;2024-01-27T09:22:48;0.80;99.90
60868;DHT22;46702;48.370;10.794;2024-01-27T09:25:15;0.90;99.90
60868;DHT22;46702;48.370;10.794;2024-01-27T09:27:41;1.00;99.90
60868;DHT22;46702;48.370;10.794;2024-01-27T09:30:07;1.10;99.90
60868;DHT22;46702;48.370;10.794;2024-01-27T09:32:33;1.20;99.90
60868;DHT22;46702;48.370;10.794;2024-01-27T09:34:59;1.30;99.90
60868;DHT22;46702;48.370;10.794;2024-01-27T09:37:24;1.40;99.90
60868;DHT22;46702;48.370;10.794;2024-01-27T09:39:50;1.40;99.90
60868;DHT22;46702;48.370;10.794;2024-01-27T09:42:20;1.40;99.90
60868;DHT22;46702;48.370;10.794;2024-01-27T09:44:49;1.50;99.90
60868;DHT22;46702;48.370;10.794;2024-01-27T09:47:15;1.60;99.90
60868;DHT22;46702;48.370;10.794;2024-01-27T09:49:42;1.70;99.90
60868;DHT22;46702;48.370;10.794;2024-01-27T09:52:08;1.70;99.90
60868;DHT22;46702;48.370;10.794;2024-01-27T09:54:35;1.80;99.90
60868;DHT22;46702;48.370;10.794;2024-01-27T09:57:01;1.80;99.90
60868;DHT22;46702;48.370;10.794;2024-01-27T09:59:27;1.90;99.90
60868;DHT22;46702;48.370;10.794;2024-01-27T10:01:55;1.90;99.90
60868;DHT22;46702;48.370;10.794;2024-01-27T10:04:22;2.00;99.90
60868;DHT22;46702;48.370;10.794;2024-01-27T10:06:50;2.20;99.90
60868;DHT22;46702;48.370;10.794;2024-01-27T10:09:16;2.20;99.90
60868;DHT22;46702;48.370;10.794;2024-01-27T10:11:45;2.30;99.90
60868;DHT22;46702;48.370;10.794;2024-01-27T10:14:11;2.40;99.90
60868;DHT22;46702;48.370;10.794;2024-01-27T10:16:44;2.40;99.90
60868;DHT22;46702;48.370;10.794;2024-01-27T10:19:15;2.30;99.90
60868;DHT22;46702;48.370;10.794;2024-01-27T10:21:43;2.40;99.90
60868;DHT22;46702;48.370;10.794;2024-01-27T10:24:09;2.40;99.90
60868;DHT22;46702;48.370;10.794;2024-01-27T10:26:34;2.50;99.90
60868;DHT22;46702;48.370;10.794;2024-01-27T10:29:00;2.60;99.90
60868;DHT22;46702;48.370;10.794;2024-01-27T10:31:33;2.60;99.90
60868;DHT22;46702;48.370;10.794;2024-01-27T10:33:59;2.70;99.90
60868;DHT22;46702;48.370;10.794;2024-01-27T10:36:39;2.70;99.90
60868;DHT22;46702;48.370;10.794;2024-01-27T10:39:20;2.70;99.90
60868;DHT22;46702;48.370;10.794;2024-01-27T10:41:47;2.70;99.90
60868;DHT22;46702;48.370;10.794;2024-01-27T10:44:17;2.80;99.90
60868;DHT22;46702;48.370;10.794;2024-01-27T10:46:48;2.80;99.90
60868;DHT22;46702;48.370;10.794;2024-01-27T10:49:16;2.90;99.90
60868;DHT22;46702;48.370;10.794;2024-01-27T10:51:50;3.00;99.90
60868;DHT22;46702;48.370;10.794;2024-01-27T10:54:25;3.10;99.90
60868;DHT22;46702;48.370;10.794;2024-01-27T10:56:56;3.10;99.90
60868;DHT22;46702;48.370;10.794;2024-01-27T10:59:23;3.10;99.90
60868;DHT22;46702;48.370;10.794;2024-01-27T11:01:52;3.10;99.90
60868;DHT22;46702;48.370;10.794;2024-01-27T11:04:25;3.10;99.90
60868;DHT22;46702;48.370;10.794;2024-01-27T11:06:52;3.10;99.90
60868;DHT22;46702;48.370;10.794;2024-01-27T11:09:21;3.10;99.90
60868;DHT22;46702;48.370;10.794;2024-01-27T11:11:47;3.00;99.90
60868;DHT22;46702;48.370;10.794;2024-01-27T11:14:13;3.10;99.90
60868;DHT22;46702;48.370;10.794;2024-01-27T11:16:39;3.20;99.90
60868;DHT22;46702;48.370;10.794;2024-01-27T11:19:10;3.30;99.90
60868;DHT22;46702;48.370;10.794;2024-01-27T11:21:37;3.30;99.90
60868;DHT22;46702;48.370;10.794;2024-01-27T11:24:13;3.30;99.90
60868;DHT22;46702;48.370;10.794;2024-01-27T11:26:39;3.30;99.90
60868;DHT22;46702;48.370;10.794;2024-01-27T11:29:07;3.40;99.90
60868;DHT22;46702;48.370;10.794;2024-01-27T11:31:35;3.50;99.90
60868;DHT22;46702;48.370;10.794;2024-01-27T11:34:00;3.60;99.90
60868;DHT22;46702;48.370;10.794;2024-01-27T11:36:27;3.50;99.90
60868;DHT22;46702;48.370;10.794;2024-01-27T11:38:53;3.50;99.90
60868;DHT22;46702;48.370;10.794;2024-01-27T11:41:29;3.50;99.90
60868;DHT22;46702;48.370;10.794;2024-01-27T11:43:56;3.60;99.90
60868;DHT22;46702;48.370;10.794;2024-01-27T11:46:22;3.50;99.90
60868;DHT22;46702;48.370;10.794;2024-01-27T11:48:48;3.50;99.90
60868;DHT22;46702;48.370;10.794;2024-01-27T11:51:14;3.60;99.90
60868;DHT22;46702;48.370;10.794;2024-01-27T11:53:40;3.60;99.90
60868;DHT22;46702;48.370;10.794;2024-01-27T11:56:06;3.60;99.90
60868;DHT22;46702;48.370;10.794;2024-01-27T11:58:33;3.60;99.90
60868;DHT22;46702;48.370;10.794;2024-01-27T12:00:59;3.70;99.90
60868;DHT22;46702;48.370;10.794;2024-01-27T12:03:25;3.70;99.90
60868;DHT22;46702;48.370;10.794;2024-01-27T12:05:51;3.60;99.90
60868;DHT22;46702;48.370;10.794;2024-01-27T12:08:17;3.70;99.90
60868;DHT22;46702;48.370;10.794;2024-01-27T12:10:43;3.70;99.90
60868;DHT22;46702;48.370;10.794;2024-01-27T12:13:08;3.80;99.90
60868;DHT22;46702;48.370;10.794;2024-01-27T12:15:34;4.00;99.90
60868;DHT22;46702;48.370;10.794;2024-01-27T12:18:00;4.00;99.90
60868;DHT22;46702;48.370;10.794;2024-01-27T12:20:25;4.10;99.90
60868;DHT22;46702;48.370;10.794;2024-01-27T12:23:05;4.10;99.90
60868;DHT22;46702;48.370;10.794;2024-01-27T12:25:31;4.20;99.90
60868;DHT22;46702;48.370;10.794;2024-01-27T12:27:57;4.20;99.90
60868;DHT22;46702;48.370;10.794;2024-01-27T12:30:26;4.10;99.90
60868;DHT22;46702;48.370;10.794;2024-01-27T12:32:52;4.20;99.90
60868;DHT22;46702;48.370;10.794;2024-01-27T12:35:18;4.30;99.90
60868;DHT22;46702;48.370;10.794;2024-01-27T12:37:43;4.20;99.90
60868;DHT22;46702;48.370;10.794;2024-01-27T12:40:20;4.30;99.90
60868;DHT22;46702;48.370;10.794;2024-01-27T12:42:45;4.30;99.90
60868;DHT22;46702;48.370;10.794;2024-01-27T12:45:11;4.40;99.90
60868;DHT22;46702;48.370;10.794;2024-01-27T12:47:37;4.40;99.90
60868;DHT22;46702;48.370;10.794;2024-01-27T12:50:03;4.40;99.90
60868;DHT22;46702;48.370;10.794;2024-01-27T12:52:28;4.40;99.90
60868;DHT22;46702;48.370;10.794;2024-01-27T12:54:54;4.50;99.90
60868;DHT22;46702;48.370;10.794;2024-01-27T12:57:20;4.50;99.90
60868;DHT22;46702;48.370;10.794;2024-01-27T12:59:45;4.50;99.90
60868;DHT22;46702;48.370;10.794;2024-01-27T13:02:12;4.50;99.90
60868;DHT22;46702;48.370;10.794;2024-01-27T13:04:39;4.50;99.90
60868;DHT22;46702;48.370;10.794;2024-01-27T13:07:04;4.60;99.90
60868;DHT22;46702;48.370;10.794;2024-01-27T13:09:30;4.70;99.90
60868;DHT22;46702;48.370;10.794;2024-01-27T13:11:56;4.70;99.90
60868;DHT22;46702;48.370;10.794;2024-01-27T13:14:21;4.70;99.90
60868;DHT22;46702;48.370;10.794;2024-01-27T13:16:48;4.70;99.90
60868;DHT22;46702;48.370;10.794;2024-01-27T13:19:13;4.60;99.90
60868;DHT22;46702;48.370;10.794;2024-01-27T13:21:39;4.60;99.90
60868;DHT22;46702;48.370;10.794;2024-01-27T13:24:06;4.60;99.90
60868;DHT22;46702;48.370;10.794;2024-01-27T13:26:34;4.60;99.90
60868;DHT22;46702;48.370;10.794;2024-01-27T13:29:03;4.70;99.90
60868;DHT22;46702;48.370;10.794;2024-01-27T13:31:30;4.70;99.90
60868;DHT22;46702;48.370;10.794;2024-01-27T13:33:56;4.70;99.90
60868;DHT22;46702;48.370;10.794;2024-01-27T13:36:22;4.80;99.90
60868;DHT22;46702;48.370;10.794;2024-01-27T13:38:48;4.80;99.90
60868;DHT22;46702;48.370;10.794;2024-01-27T13:41:14;4.80;99.90
60868;DHT22;46702;48.370;10.794;2024-01-27T13:43:41;4.80;99.90
60868;DHT22;46702;48.370;10.794;2024-01-27T13:46:06;4.70;99.90
60868;DHT22;46702;48.370;10.794;2024-01-27T13:48:32;4.70;99.90
60868;DHT22;46702;48.370;10.794;2024-01-27T13:50:58;4.90;99.90
60868;DHT22;46702;48.370;10.794;2024-01-27T13:53:24;5.10;99.90
60868;DHT22;46702;48.370;10.794;2024-01-27T13:55:49;5.10;99.90
60868;DHT22;46702;48.370;10.794;2024-01-27T13:58:15;5.20;99.90
60868;DHT22;46702;48.370;10.794;2024-01-27T14:00:41;5.10;99.90
60868;DHT22;46702;48.370;10.794;2024-01-27T14:03:06;5.20;99.90
60868;DHT22;46702;48.370;10.794;2024-01-27T14:05:32;5.20;99.90
60868;DHT22;46702;48.370;10.794;2024-01-27T14:07:58;5.20;99.90
60868;DHT22;46702;48.370;10.794;2024-01-27T14:10:23;5.20;99.90
60868;DHT22;46702;48.370;10.794;2024-01-27T14:12:50;5.10;99.90
60868;DHT22;46702;48.370;10.794;2024-01-27T14:15:16;5.10;99.90
60868;DHT22;46702;48.370;10.794;2024-01-27T14:17:43;5.10;99.90
60868;DHT22;46702;48.370;10.794;2024-01-27T14:20:10;5.20;99.90
60868;DHT22;46702;48.370;10.794;2024-01-27T14:22:36;5.30;99.90
60868;DHT22;46702;48.370;10.794;2024-01-27T14:25:02;5.20;99.90
60868;DHT22;46702;48.370;10.794;2024-01-27T14:27:28;5.20;99.90
60868;DHT22;46702;48.370;10.794;2024-01-27T14:29:54;5.20;99.90
60868;DHT22;46702;48.370;10.794;2024-01-27T14:32:20;5.20;99.90
60868;DHT22;46702;48.370;10.794;2024-01-27T14:34:46;5.20;99.90
60868;DHT22;46702;48.370;10.794;2024-01-27T14:37:12;5.20;99.90
60868;DHT22;46702;48.370;10.794;2024-01-27T14:39:39;5.20;99.90
60868;DHT22;46702;48.370;10.794;2024-01-27T14:42:09;5.20;99.90
60868;DHT22;46702;48.370;10.794;2024-01-27T14:44:35;5.20;99.90
60868;DHT22;46702;48.370;10.794;2024-01-27T14:47:00;5.20;99.90
60868;DHT22;46702;48.370;10.794;2024-01-27T14:49:26;5.10;99.90
60868;DHT22;46702;48.370;10.794;2024-01-27T14:51:53;5.10;99.90
60868;DHT22;46702;48.370;10.794;2024-01-27T14:54:19;5.10;99.90
60868;DHT22;46702;48.370;10.794;2024-01-27T14:56:44;5.10;99.90
60868;DHT22;46702;48.370;10.794;2024-01-27T14:59:10;5.10;99.90
60868;DHT22;46702;48.370;10.794;2024-01-27T15:01:36;5.00;99.90
60868;DHT22;46702;48.370;10.794;2024-01-27T15:04:01;4.90;99.90
60868;DHT22;46702;48.370;10.794;2024-01-27T15:06:27;5.00;99.90
60868;DHT22;46702;48.370;10.794;2024-01-27T15:08:53;5.00;99.90
60868;DHT22;46702;48.370;10.794;2024-01-27T15:11:19;4.90;99.90
60868;DHT22;46702;48.370;10.794;2024-01-27T15:13:45;4.90;99.90
60868;DHT22;46702;48.370;10.794;2024-01-27T15:16:10;4.80;99.90
60868;DHT22;46702;48.370;10.794;2024-01-27T15:18:36;4.80;99.90
60868;DHT22;46702;48.370;10.794;2024-01-27T15:21:06;4.70;99.90
60868;DHT22;46702;48.370;10.794;2024-01-27T15:23:32;4.70;99.90